createdAt,value
2018-02-02T00:00:25.291Z,2.26
2018-02-02T00:02:55.829Z,2.24
2018-02-02T00:05:24.145Z,2.24
2018-02-02T00:07:55.056Z,2.25
2018-02-02T00:10:23.684Z,2.24
2018-02-02T00:12:52.249Z,2.24
2018-02-02T00:15:20.591Z,2.25
2018-02-02T00:17:49.687Z,2.25
2018-02-02T00:20:18.081Z,2.24
2018-02-02T00:22:46.475Z,2.25
2018-02-02T00:25:14.921Z,2.27
2018-02-02T00:27:45.201Z,2.30
2018-02-02T00:30:15.875Z,2.31
2018-02-02T00:32:45.171Z,2.31
2018-02-02T00:35:13.455Z,2.29
2018-02-02T00:37:43.490Z,2.30
2018-02-02T00:40:11.845Z,2.32
2018-02-02T00:42:40.253Z,2.32
2018-02-02T00:45:10.419Z,2.33
2018-02-02T00:47:41.665Z,2.33
2018-02-02T00:50:11.954Z,2.32
2018-02-02T00:52:42.026Z,2.32
2018-02-02T00:55:13.307Z,2.31
2018-02-02T00:57:42.733Z,2.28
2018-02-02T01:00:11.170Z,2.28
2018-02-02T01:02:39.498Z,2.28
2018-02-02T01:05:07.881Z,2.28
2018-02-02T01:07:36.229Z,2.26
2018-02-02T01:10:04.635Z,2.24
2018-02-02T01:12:34.687Z,2.23
2018-02-02T01:15:04.952Z,2.25
2018-02-02T01:17:35.687Z,2.25
2018-02-02T01:20:05.753Z,2.27
2018-02-02T01:22:34.114Z,2.27
2018-02-02T01:25:03.214Z,2.25
2018-02-02T01:27:31.509Z,2.25
2018-02-02T01:29:59.876Z,2.27
2018-02-02T01:32:30.709Z,2.26
2018-02-02T01:34:58.998Z,2.26
2018-02-02T01:37:29.059Z,2.25
2018-02-02T01:39:59.074Z,2.22
2018-02-02T01:42:30.062Z,2.22
2018-02-02T01:44:59.170Z,2.21
2018-02-02T01:47:29.118Z,2.20
2018-02-02T01:49:59.280Z,2.20
2018-02-02T01:52:27.624Z,2.18
2018-02-02T01:54:55.962Z,2.18
2018-02-02T01:57:24.281Z,2.18
2018-02-02T01:59:52.818Z,2.18
2018-02-02T02:02:21.138Z,2.16
2018-02-02T02:04:51.710Z,2.14
2018-02-02T02:07:20.038Z,2.14
2018-02-02T02:09:50.470Z,2.13
2018-02-02T02:12:18.848Z,2.12
2018-02-02T02:14:49.708Z,2.10
2018-02-02T02:17:19.673Z,2.07
2018-02-02T02:19:48.398Z,2.03
2018-02-02T02:22:16.770Z,2.00
2018-02-02T02:24:45.126Z,2.01
2018-02-02T02:27:15.276Z,2.02
2018-02-02T02:29:43.631Z,2.04
2018-02-02T02:32:11.959Z,2.05
2018-02-02T02:34:43.182Z,2.04
2018-02-02T02:37:11.533Z,2.03
2018-02-02T02:39:42.494Z,2.03
2018-02-02T02:42:12.462Z,2.03
2018-02-02T02:44:40.799Z,2.02
2018-02-02T02:47:10.828Z,1.98
2018-02-02T02:49:39.206Z,1.99
2018-02-02T02:52:07.601Z,1.96
2018-02-02T02:54:37.639Z,1.94
2018-02-02T02:57:06.824Z,1.94
2018-02-02T02:59:36.199Z,1.96
2018-02-02T03:02:04.574Z,1.93
2018-02-02T03:04:32.889Z,1.93
2018-02-02T03:07:02.844Z,1.92
2018-02-02T03:09:31.218Z,1.91
2018-02-02T03:11:59.504Z,1.91
2018-02-02T03:14:29.954Z,1.90
2018-02-02T03:16:58.997Z,1.91
2018-02-02T03:19:28.091Z,1.90
2018-02-02T03:21:57.213Z,1.88
2018-02-02T03:24:27.462Z,1.86
2018-02-02T03:27:00.038Z,1.88
2018-02-02T03:29:28.620Z,1.86
2018-02-02T03:31:56.958Z,1.85
2018-02-02T03:34:27.401Z,1.85
2018-02-02T03:36:56.488Z,1.82
2018-02-02T03:39:24.779Z,1.82
2018-02-02T03:41:53.092Z,1.83
2018-02-02T03:44:21.433Z,1.83
2018-02-02T03:46:50.528Z,1.83
2018-02-02T03:49:18.838Z,1.85
2018-02-02T03:51:47.191Z,1.86
2018-02-02T03:54:15.552Z,1.85
2018-02-02T03:56:45.690Z,1.83
2018-02-02T03:59:14.089Z,1.82
2018-02-02T04:01:45.051Z,1.82
2018-02-02T04:04:13.503Z,1.79
2018-02-02T04:06:41.957Z,1.78
2018-02-02T04:09:10.311Z,1.80
2018-02-02T04:11:39.363Z,1.80
2018-02-02T04:14:07.729Z,1.80
2018-02-02T04:16:36.037Z,1.76
2018-02-02T04:19:06.124Z,1.74
2018-02-02T04:21:34.441Z,1.70
2018-02-02T04:24:04.327Z,1.69
2018-02-02T04:26:32.699Z,1.70
2018-02-02T04:29:02.497Z,1.71
2018-02-02T04:31:32.587Z,1.70
2018-02-02T04:34:00.965Z,1.71
2018-02-02T04:36:30.047Z,1.73
2018-02-02T04:38:58.573Z,1.75
2018-02-02T04:41:27.728Z,1.74
2018-02-02T04:43:57.835Z,1.76
2018-02-02T04:46:26.939Z,1.78
2018-02-02T04:48:55.263Z,1.79
2018-02-02T04:51:23.567Z,1.80
2018-02-02T04:53:52.035Z,1.78
2018-02-02T04:56:22.535Z,1.78
2018-02-02T04:58:53.879Z,1.79
2018-02-02T05:01:22.261Z,1.81
2018-02-02T05:03:50.622Z,1.81
2018-02-02T05:06:21.087Z,1.81
2018-02-02T05:08:50.916Z,1.81
2018-02-02T05:11:22.369Z,1.81
2018-02-02T05:13:52.473Z,1.79
2018-02-02T05:16:20.863Z,1.81
2018-02-02T05:18:49.279Z,1.80
2018-02-02T05:21:17.604Z,1.78
2018-02-02T05:23:46.031Z,1.76
2018-02-02T05:26:16.222Z,1.77
2018-02-02T05:28:45.515Z,1.78
2018-02-02T05:31:15.571Z,1.79
2018-02-02T05:33:44.009Z,1.79
2018-02-02T05:36:12.576Z,1.79
2018-02-02T05:38:40.950Z,1.78
2018-02-02T05:41:11.087Z,1.79
2018-02-02T05:43:39.794Z,1.76
2018-02-02T05:46:09.863Z,1.74
2018-02-02T05:48:38.213Z,1.71
2018-02-02T05:51:07.305Z,1.71
2018-02-02T05:53:35.614Z,1.68
2018-02-02T05:56:07.039Z,1.68
2018-02-02T05:58:35.517Z,1.70
2018-02-02T06:01:03.931Z,1.69
2018-02-02T06:03:33.867Z,1.68
2018-02-02T06:06:04.719Z,1.67
2018-02-02T06:08:33.893Z,1.63
2018-02-02T06:11:03.085Z,1.61
2018-02-02T06:13:31.416Z,1.62
2018-02-02T06:15:59.801Z,1.63
2018-02-02T06:18:29.909Z,1.62
2018-02-02T06:21:00.159Z,1.60
2018-02-02T06:23:30.957Z,1.58
2018-02-02T06:25:59.297Z,1.60
2018-02-02T06:28:29.257Z,1.57
2018-02-02T06:30:57.666Z,1.56
2018-02-02T06:33:25.977Z,1.57
2018-02-02T06:35:54.391Z,1.57
2018-02-02T06:38:23.473Z,1.54
2018-02-02T06:40:55.029Z,1.55
2018-02-02T06:43:23.383Z,1.54
2018-02-02T06:45:51.761Z,1.53
2018-02-02T06:48:20.113Z,1.54
2018-02-02T06:50:48.532Z,1.56
2018-02-02T06:53:16.877Z,1.57
2018-02-02T06:55:46.319Z,1.56
2018-02-02T06:58:15.754Z,1.54
2018-02-02T07:00:44.232Z,1.55
2018-02-02T07:03:14.413Z,1.56
2018-02-02T07:05:42.855Z,1.56
2018-02-02T07:08:13.036Z,1.56
2018-02-02T07:10:43.086Z,1.55
2018-02-02T07:13:11.503Z,1.57
2018-02-02T07:15:42.435Z,1.54
2018-02-02T07:18:10.802Z,1.51
2018-02-02T07:20:39.280Z,1.52
2018-02-02T07:23:09.288Z,1.54
2018-02-02T07:25:37.775Z,1.55
2018-02-02T07:28:07.865Z,1.53
2018-02-02T07:30:38.012Z,1.54
2018-02-02T07:33:06.425Z,1.57
2018-02-02T07:35:35.601Z,1.57
2018-02-02T07:38:04.995Z,1.60
2018-02-02T07:40:34.803Z,1.60
2018-02-02T07:43:03.125Z,1.61
2018-02-02T07:45:34.165Z,1.63
2018-02-02T07:48:04.437Z,1.65
2018-02-02T07:50:35.646Z,1.67
2018-02-02T07:53:04.112Z,1.67
2018-02-02T07:55:36.383Z,1.69
2018-02-02T07:58:04.680Z,1.74
2018-02-02T08:00:39.752Z,1.77
2018-02-02T08:03:10.822Z,1.77
2018-02-02T08:05:40.216Z,1.82
2018-02-02T08:08:11.252Z,1.86
2018-02-02T08:10:39.643Z,1.90
2018-02-02T08:13:09.476Z,1.92
2018-02-02T08:15:39.646Z,1.91
2018-02-02T08:18:09.834Z,1.92
2018-02-02T08:20:38.179Z,1.91
2018-02-02T08:23:07.527Z,1.93
2018-02-02T08:25:35.870Z,1.97
2018-02-02T08:28:06.020Z,2.00
2018-02-02T08:30:37.044Z,2.07
2018-02-02T08:33:05.472Z,2.12
2018-02-02T08:35:33.903Z,2.11
2018-02-02T08:38:04.036Z,2.16
2018-02-02T08:40:33.136Z,2.15
2018-02-02T08:43:01.724Z,2.18
2018-02-02T08:45:32.623Z,2.19
2018-02-02T08:48:06.336Z,2.26
2018-02-02T08:50:35.978Z,2.29
2018-02-02T08:53:04.349Z,2.34
2018-02-02T08:55:34.406Z,2.40
2018-02-02T08:58:02.766Z,2.44
2018-02-02T09:00:31.758Z,2.48
2018-02-02T09:03:04.394Z,2.53
2018-02-02T09:05:32.751Z,2.53
2018-02-02T09:08:01.097Z,2.52
2018-02-02T09:10:29.455Z,2.55
2018-02-02T09:12:57.951Z,2.57
2018-02-02T09:15:26.953Z,2.58
2018-02-02T09:17:57.678Z,2.62
2018-02-02T09:20:26.783Z,2.65
2018-02-02T09:22:55.289Z,2.70
2018-02-02T09:25:25.454Z,2.75
2018-02-02T09:27:53.352Z,2.75
2018-02-02T09:30:21.822Z,2.79
2018-02-02T09:32:50.191Z,2.83
2018-02-02T09:35:18.656Z,2.87
2018-02-02T09:37:47.010Z,2.91
2018-02-02T09:40:15.860Z,2.92
2018-02-02T09:42:44.276Z,2.93
2018-02-02T09:45:14.332Z,3.04
2018-02-02T09:47:42.784Z,3.11
2018-02-02T09:50:11.120Z,3.07
2018-02-02T09:52:39.544Z,3.07
2018-02-02T09:55:09.493Z,3.11
2018-02-02T09:57:37.893Z,3.16
2018-02-02T10:00:06.292Z,3.22
2018-02-02T10:02:34.807Z,3.20
2018-02-02T10:05:04.008Z,3.28
2018-02-02T10:07:32.395Z,3.25
2018-02-02T10:10:00.771Z,3.25
2018-02-02T10:12:29.174Z,3.33
2018-02-02T10:14:57.684Z,3.36
2018-02-02T10:17:26.054Z,3.42
2018-02-02T10:19:54.338Z,3.47
2018-02-02T10:22:22.934Z,3.61
2018-02-02T10:24:51.378Z,3.67
2018-02-02T10:27:19.696Z,3.76
2018-02-02T10:29:48.042Z,3.84
2018-02-02T10:32:17.992Z,3.88
2018-02-02T10:34:46.377Z,3.87
2018-02-02T10:37:17.358Z,3.90
2018-02-02T10:39:45.820Z,3.84
2018-02-02T10:42:14.214Z,3.88
2018-02-02T10:44:44.766Z,3.96
2018-02-02T10:47:13.067Z,4.02
2018-02-02T10:49:41.906Z,3.90
2018-02-02T10:52:10.350Z,3.91
2018-02-02T10:54:40.446Z,3.94
2018-02-02T10:57:10.828Z,3.95
2018-02-02T10:59:41.752Z,3.99
2018-02-02T11:02:15.698Z,4.00
2018-02-02T11:04:44.009Z,4.00
2018-02-02T11:07:13.106Z,3.93
2018-02-02T11:09:41.482Z,3.98
2018-02-02T11:12:09.961Z,4.02
2018-02-02T11:14:42.509Z,4.01
2018-02-02T11:17:10.951Z,4.02
2018-02-02T11:19:39.394Z,4.07
2018-02-02T11:22:07.774Z,4.06
2018-02-02T11:24:36.145Z,3.98
2018-02-02T11:27:04.540Z,4.02
2018-02-02T11:29:32.929Z,4.00
2018-02-02T11:32:03.504Z,3.98
2018-02-02T11:34:31.883Z,3.93
2018-02-02T11:37:00.241Z,4.00
2018-02-02T11:39:28.524Z,4.03
2018-02-02T11:41:56.849Z,4.07
2018-02-02T11:44:25.193Z,4.13
2018-02-02T11:46:53.464Z,4.16
2018-02-02T11:49:21.820Z,4.18
2018-02-02T11:51:50.200Z,4.21
2018-02-02T11:54:20.466Z,4.23
2018-02-02T11:56:51.257Z,4.28
2018-02-02T11:59:21.111Z,4.19
2018-02-02T12:01:49.661Z,4.14
2018-02-02T12:04:18.033Z,4.16
2018-02-02T12:06:46.454Z,4.23
2018-02-02T12:09:14.834Z,4.24
2018-02-02T12:11:46.701Z,4.31
2018-02-02T12:14:15.021Z,4.28
2018-02-02T12:16:43.353Z,4.29
2018-02-02T12:19:11.841Z,4.32
2018-02-02T12:21:42.478Z,4.38
2018-02-02T12:24:22.552Z,4.41
2018-02-02T12:26:57.142Z,4.48
2018-02-02T12:29:26.151Z,4.57
2018-02-02T12:31:55.238Z,4.61
2018-02-02T12:34:25.474Z,4.61
2018-02-02T12:36:53.829Z,4.66
2018-02-02T12:39:24.723Z,4.74
2018-02-02T12:41:53.308Z,4.77
2018-02-02T12:44:21.735Z,4.74
2018-02-02T12:46:51.972Z,4.69
2018-02-02T12:49:34.322Z,4.75
2018-02-02T12:52:06.126Z,4.77
2018-02-02T12:54:37.995Z,4.79
2018-02-02T12:57:08.819Z,4.88
2018-02-02T12:59:38.235Z,4.97
2018-02-02T13:02:06.829Z,4.97
2018-02-02T13:04:37.763Z,4.88
2018-02-02T13:07:06.277Z,4.86
2018-02-02T13:09:34.645Z,4.84
2018-02-02T13:12:03.075Z,4.86
2018-02-02T13:14:31.567Z,4.82
2018-02-02T13:17:00.144Z,4.80
2018-02-02T13:19:31.120Z,4.79
2018-02-02T13:22:01.045Z,4.81
2018-02-02T13:24:29.994Z,4.80
2018-02-02T13:26:58.374Z,4.78
2018-02-02T13:29:27.529Z,4.69
2018-02-02T13:31:58.827Z,4.62
2018-02-02T13:34:29.047Z,4.59
2018-02-02T13:36:58.132Z,4.58
2018-02-02T13:39:26.509Z,4.57
2018-02-02T13:41:56.172Z,4.60
2018-02-02T13:44:27.480Z,4.67
2018-02-02T13:46:56.048Z,4.81
2018-02-02T13:49:25.513Z,4.92
2018-02-02T13:51:55.636Z,4.99
2018-02-02T13:54:24.274Z,5.03
2018-02-02T13:56:52.758Z,5.02
2018-02-02T13:59:21.164Z,5.06
2018-02-02T14:01:49.518Z,5.08
2018-02-02T14:04:19.647Z,5.07
2018-02-02T14:06:48.107Z,5.03
2018-02-02T14:09:17.452Z,4.99
2018-02-02T14:11:47.745Z,4.96
2018-02-02T14:14:17.012Z,5.01
2018-02-02T14:16:48.170Z,5.03
2018-02-02T14:19:16.530Z,5.07
2018-02-02T14:21:46.374Z,5.09
2018-02-02T14:24:14.820Z,5.12
2018-02-02T14:26:45.995Z,5.10
2018-02-02T14:29:14.646Z,5.14
2018-02-02T14:31:45.702Z,5.16
2018-02-02T14:34:14.206Z,5.16
2018-02-02T14:36:42.675Z,5.10
2018-02-02T14:39:11.074Z,4.98
2018-02-02T14:41:39.446Z,4.94
2018-02-02T14:44:09.483Z,4.85
2018-02-02T14:46:39.632Z,4.81
2018-02-02T14:49:08.159Z,4.71
2018-02-02T14:51:37.396Z,4.66
2018-02-02T14:54:06.084Z,4.69
2018-02-02T14:56:35.683Z,4.69
2018-02-02T14:59:05.296Z,4.67
2018-02-02T15:01:34.879Z,4.66
2018-02-02T15:04:05.405Z,4.62
2018-02-02T15:06:39.222Z,4.65
2018-02-02T15:09:11.572Z,4.63
2018-02-02T15:11:39.954Z,4.68
2018-02-02T15:14:08.359Z,4.68
2018-02-02T15:16:36.708Z,4.70
2018-02-02T15:19:06.971Z,4.74
2018-02-02T15:21:36.713Z,4.74
2018-02-02T15:24:09.475Z,4.65
2018-02-02T15:26:37.834Z,4.58
2018-02-02T15:29:08.390Z,4.50
2018-02-02T15:31:37.434Z,4.41
2018-02-02T15:34:06.273Z,4.38
2018-02-02T15:36:37.219Z,4.34
2018-02-02T15:39:07.729Z,4.29
2018-02-02T15:41:38.620Z,4.25
2018-02-02T15:44:07.001Z,4.23
2018-02-02T15:46:39.250Z,4.19
2018-02-02T15:49:10.205Z,4.13
2018-02-02T15:51:38.947Z,4.13
2018-02-02T15:54:07.477Z,4.10
2018-02-02T15:56:35.937Z,4.08
2018-02-02T15:59:05.361Z,4.03
2018-02-02T16:01:33.931Z,3.96
2018-02-02T16:06:37.584Z,3.89
2018-02-02T16:09:07.836Z,3.85
2018-02-02T16:11:38.948Z,3.81
2018-02-02T16:14:10.065Z,3.79
2018-02-02T16:16:40.579Z,3.74
2018-02-02T16:19:11.497Z,3.73
2018-02-02T16:21:40.963Z,3.69
2018-02-02T16:24:09.303Z,3.66
2018-02-02T16:26:37.650Z,3.62
2018-02-02T16:29:08.797Z,3.59
2018-02-02T16:31:37.951Z,3.51
2018-02-02T16:34:09.821Z,3.51
2018-02-02T16:36:39.456Z,3.46
2018-02-02T16:39:09.885Z,3.45
2018-02-02T16:41:40.863Z,3.39
2018-02-02T16:44:12.237Z,3.43
2018-02-02T16:46:41.330Z,3.41
2018-02-02T16:49:11.671Z,3.40
2018-02-02T16:51:43.953Z,3.40
2018-02-02T16:54:12.742Z,3.39
2018-02-02T16:56:41.140Z,3.39
2018-02-02T16:59:09.549Z,3.39
2018-02-02T17:01:37.870Z,3.40
2018-02-02T17:04:07.731Z,3.39
2018-02-02T17:06:36.480Z,3.39
2018-02-02T17:09:05.209Z,3.39
2018-02-02T17:11:33.602Z,3.39
2018-02-02T17:14:04.627Z,3.39
2018-02-02T17:16:35.807Z,3.38
2018-02-02T17:19:05.372Z,3.38
2018-02-02T17:21:33.906Z,3.37
2018-02-02T17:24:02.240Z,3.37
2018-02-02T17:26:30.675Z,3.36
2018-02-02T17:28:58.985Z,3.35
2018-02-02T17:31:27.563Z,3.35
2018-02-02T17:33:56.997Z,3.32
2018-02-02T17:36:28.195Z,3.34
2018-02-02T17:38:56.772Z,3.33
2018-02-02T17:41:26.287Z,3.33
2018-02-02T17:43:56.639Z,3.33
2018-02-02T17:46:27.981Z,3.33
2018-02-02T17:48:58.326Z,3.32
2018-02-02T17:51:30.339Z,3.33
2018-02-02T17:53:58.681Z,3.33
2018-02-02T17:56:27.245Z,3.32
2018-02-02T17:58:58.065Z,3.31
2018-02-02T18:04:29.187Z,3.30
2018-02-02T18:07:00.844Z,3.29
2018-02-02T18:09:29.229Z,3.29
2018-02-02T18:11:59.310Z,3.28
2018-02-02T18:14:27.720Z,3.28
2018-02-02T18:17:00.372Z,3.27
2018-02-02T18:19:29.539Z,3.26
2018-02-02T18:21:57.934Z,3.26
2018-02-02T18:24:26.705Z,3.25
2018-02-02T18:26:59.113Z,3.26
2018-02-02T18:29:30.148Z,3.27
2018-02-02T18:32:02.301Z,3.28
2018-02-02T18:34:32.188Z,3.28
2018-02-02T18:37:00.651Z,3.28
2018-02-02T18:39:29.160Z,3.30
2018-02-02T18:41:58.366Z,3.28
2018-02-02T18:44:27.526Z,3.28
2018-02-02T18:46:57.169Z,3.26
2018-02-02T18:49:25.748Z,3.26
2018-02-02T18:51:54.430Z,3.25
2018-02-02T18:54:23.040Z,3.24
2018-02-02T18:56:51.390Z,3.23
2018-02-02T18:59:21.491Z,3.24
2018-02-02T19:01:50.442Z,3.23
2018-02-02T19:04:20.947Z,3.21
2018-02-02T19:06:49.712Z,3.21
2018-02-02T19:09:19.889Z,3.20
2018-02-02T19:11:49.060Z,3.21
2018-02-02T19:14:21.698Z,3.21
2018-02-02T19:16:51.940Z,3.21
2018-02-02T19:19:21.634Z,3.19
2018-02-02T19:21:52.191Z,3.21
2018-02-02T19:24:21.543Z,3.21
2018-02-02T19:26:50.077Z,3.21
2018-02-02T19:29:21.384Z,3.20
2018-02-02T19:31:50.558Z,3.18
2018-02-02T19:34:19.452Z,3.19
2018-02-02T19:36:52.088Z,3.17
2018-02-02T19:39:20.708Z,3.17
2018-02-02T19:41:49.225Z,3.17
2018-02-02T19:44:17.900Z,3.17
2018-02-02T19:46:48.282Z,3.16
2018-02-02T19:49:16.795Z,3.14
2018-02-02T19:51:45.223Z,3.13
2018-02-02T19:54:16.403Z,3.12
2018-02-02T19:56:46.700Z,3.12
2018-02-02T19:59:19.455Z,3.10
2018-02-02T20:01:52.120Z,3.10
2018-02-02T20:04:22.817Z,3.08
2018-02-02T20:06:51.231Z,3.07
2018-02-02T20:09:21.435Z,3.05
2018-02-02T20:11:50.246Z,3.06
2018-02-02T20:14:18.687Z,3.06
2018-02-02T20:16:48.372Z,3.05
2018-02-02T20:19:17.646Z,3.04
2018-02-02T20:21:47.267Z,3.03
2018-02-02T20:24:15.956Z,3.03
2018-02-02T20:26:46.116Z,3.02
2018-02-02T20:29:15.609Z,3.01
2018-02-02T20:31:44.362Z,3.02
2018-02-02T20:34:13.100Z,3.01
2018-02-02T20:36:43.184Z,3.01
2018-02-02T20:39:15.043Z,3.00
2018-02-02T20:41:44.540Z,3.00
2018-02-02T20:44:15.751Z,2.99
2018-02-02T20:46:44.498Z,2.98
2018-02-02T20:49:14.695Z,2.98
2018-02-02T20:51:46.010Z,2.97
2018-02-02T20:54:16.820Z,2.97
2018-02-02T20:56:46.022Z,2.97
2018-02-02T20:59:16.409Z,2.97
2018-02-02T21:01:47.357Z,2.96
2018-02-02T21:04:17.636Z,2.97
2018-02-02T21:06:49.678Z,2.97
2018-02-02T21:09:18.912Z,2.97
2018-02-02T21:11:47.311Z,2.96
2018-02-02T21:14:17.046Z,2.96
2018-02-02T21:16:45.407Z,2.95
2018-02-02T21:19:16.356Z,2.95
2018-02-02T21:21:46.805Z,2.95
2018-02-02T21:24:19.400Z,2.95
2018-02-02T21:26:49.646Z,2.94
2018-02-02T21:29:24.735Z,2.94
2018-02-02T21:31:54.032Z,2.93
2018-02-02T21:34:22.640Z,2.92
2018-02-02T21:36:52.788Z,2.91
2018-02-02T21:39:22.797Z,2.90
2018-02-02T21:41:52.971Z,2.90
2018-02-02T21:44:21.343Z,2.88
2018-02-02T21:46:50.567Z,2.90
2018-02-02T21:49:18.947Z,2.89
2018-02-02T21:51:50.024Z,2.88
2018-02-02T21:54:20.585Z,2.89
2018-02-02T21:56:50.735Z,2.90
2018-02-02T21:59:19.367Z,2.89
2018-02-02T22:01:47.735Z,2.88
2018-02-02T22:04:17.023Z,2.87
2018-02-02T22:06:48.284Z,2.88
2018-02-02T22:09:18.405Z,2.87
2018-02-02T22:11:51.124Z,2.86
2018-02-02T22:14:21.068Z,2.86
2018-02-02T22:16:49.502Z,2.87
2018-02-02T22:19:21.976Z,2.86
2018-02-02T22:21:52.036Z,2.86
2018-02-02T22:24:21.257Z,2.85
2018-02-02T22:26:51.434Z,2.83
2018-02-02T22:31:54.518Z,2.83
2018-02-02T22:34:28.065Z,2.82
2018-02-02T22:36:58.312Z,2.82
2018-02-02T22:39:26.763Z,2.82
2018-02-02T22:41:56.671Z,2.81
2018-02-02T22:44:25.912Z,2.81
2018-02-02T22:46:55.097Z,2.81
2018-02-02T22:49:24.135Z,2.80
2018-02-02T22:51:52.497Z,2.80
2018-02-02T22:54:20.826Z,2.79
2018-02-02T22:56:49.552Z,2.79
2018-02-02T22:59:19.756Z,2.80
2018-02-02T23:01:50.103Z,2.81
2018-02-02T23:04:22.285Z,2.82
2018-02-02T23:06:52.703Z,2.80
2018-02-02T23:09:23.752Z,2.80
2018-02-02T23:11:55.104Z,2.79
2018-02-02T23:14:25.343Z,2.80
2018-02-02T23:16:57.062Z,2.79
2018-02-02T23:19:26.414Z,2.79
2018-02-02T23:21:56.670Z,2.79
2018-02-02T23:24:26.761Z,2.79
2018-02-02T23:26:55.208Z,2.80
2018-02-02T23:29:24.313Z,2.80
2018-02-02T23:31:53.672Z,2.80
2018-02-02T23:34:22.988Z,2.79
2018-02-02T23:36:52.187Z,2.79
2018-02-02T23:39:20.589Z,2.79
2018-02-02T23:41:50.788Z,2.80
2018-02-02T23:44:22.348Z,2.80
2018-02-02T23:46:50.909Z,2.79
2018-02-02T23:49:21.810Z,2.80
2018-02-02T23:51:52.029Z,2.80
2018-02-02T23:54:22.203Z,2.79
2018-02-02T23:56:53.231Z,2.78
2018-02-02T23:59:22.743Z,2.78
